Accueil
METAR-TAF:

METAR-TAF

Aéroports :

Aéroport international de Fredericton

Fredericton, Nouveau-Brunswick, Canada

latitude: 45-52N, longitude: 066-32W, altitude: 17 m

Observation

Le bulletin a été fait il y a 30 heures et 14 minutes, à 00:00 UTC
Vent 2 kt de ouest/sud-ouest
Température 17°C
Humidité 94%
Pression 1022 hPa
Visibilité: 14.5 km
Ciel clair

METAR: CYFC 210000Z AUTO 25002KT 9SM CLR 17/16 A3017 RMK SLP219

Heure: 03:14 (06:14 UTC)

Prévision

Le bulletin a été fait il y a 12 heures et 36 minutes, à 17:38 UTC
Prévision valable du 20 à 18 UTC au 21 à 06 UTC
Vent 3 kt de direction variable
Visibilité: 10 km
Nuages épars à une hauteur de 2000 ft
Temporairement
du 20 à 18 UTC au 20 à 20 UTC
Nuages fragmentés à une hauteur de 2000 ft

TAF: CYFC 201738Z 2018/2106 VRB03KT P6SM SCT020 TEMPO 2018/2020 BKN020 RMK FCST BASED ON AUTO OBS. NXT FCST BY 210000Z

Observations et prévisions météorologiques de plus de 4000 aéroports (messages METAR et TAF).

Les stations disponibles sont représentées par des disques jaunes et rouges sur la carte.

Passer la souris dessus pour voir le nom de la station.

Cliquer dessus pour voir les observations et prévisions météorologiques.

Pour changer de carte: cliquez sur les boutons verts avec une croix noire pour zoomer, sur le bouton vert avec un tiret pour effectuer un zoom arrière, ou sur les flèches vertes pour les cartes adjacentes.


METAR-TAF: